Elizabeth Dewey — WDC6540 — position and weather

sailwx.info

Track history (hours):
 
Tides and Currents Weather Stations Pressure Air Temp Water Temp Dewpoint Dewpoint Depression Visibility Wind Speed Wind Dir Waves Ship Positions

Elizabeth Dewey

Owner: American Commercial Lines LLC, Jeffersonville, IN. More information available from US FCC via Universal Licensing System and Coast Guard Vessel Documentation Center.

Last reported at 2018-May-21 14:14 UTC. Time now 2018-May-25 14:57 UTC.
Position N 32°41' W 091°06'.

Length 48 m; draft 3.4 m.

Type: Towing. MMSI: 367057670.

Date/timePositionNaut miles runAvg speedWind from/ knotsBaromVisibWave heightAir tempDewpointWater temp
2018-May-21 14:14N 32°41' W 091°06'1 4.3
2018-May-21 13:55N 32°40' W 091°07'2 3.9
2018-May-21 13:31N 32°39' W 091°09'2 4.1
2018-May-21 13:00N 32°37' W 091°09'2 3.3
2018-May-21 12:30N 32°36' W 091°08'2 4.2
2018-May-21 12:01N 32°34' W 091°06'2 3.6
2018-May-21 11:30N 32°33' W 091°06'2 3.8
2018-May-21 11:00N 32°31' W 091°07'2 4.0
2018-May-21 10:31N 32°29' W 091°07'2 3.9
2018-May-21 10:00N 32°27' W 091°05'2 4.2
2018-May-21 09:31N 32°26' W 091°03'2 4.1
2018-May-21 09:01N 32°26' W 091°01'2 3.6
2018-May-21 08:31N 32°24' W 090°59'2 4.1
2018-May-21 08:01N 32°22' W 091°00'2 3.8
2018-May-21 07:31N 32°21' W 090°59'2 4.0
2018-May-21 07:00N 32°21' W 090°56'2 3.8
2018-May-21 06:31N 32°20' W 090°54'2 3.8
2018-May-21 06:01N 32°18' W 090°55'2 3.8
2018-May-21 05:30N 32°17' W 090°56'2 3.9
2018-May-21 05:00N 32°16' W 090°58'2 3.9
2018-May-21 04:30N 32°14' W 090°59'2 4.3
2018-May-21 04:00N 32°12' W 090°59'2 3.7
2018-May-21 03:31N 32°10' W 090°60'2 3.8
2018-May-21 03:01N 32°08' W 091°00'2 3.5
2018-May-21 02:30N 32°07' W 091°02'2 3.7
2018-May-21 01:57N 32°08' W 091°04'2 3.8
2018-May-21 01:31N 32°07' W 091°06'2 3.5
2018-May-21 01:00N 32°06' W 091°05'1 1.1
2018-May-21 00:01N 32°05' W 091°05'0 3.2
2018-May-21 00:01N 32°05' W 091°05'2 4.1
2018-May-20 23:31N 32°03' W 091°04'2 4.8
2018-May-20 23:01N 32°01' W 091°05'6 3.9
2018-May-20 21:33N 31°59' W 091°11'  
2018-May-18 11:40N 30°00' W 090°47'1 4.8
2018-May-18 11:30N 30°01' W 090°46'1 1.7
2018-May-18 10:42N 30°01' W 090°45'0 0.0
2018-May-18 10:28N 30°01' W 090°45'0 0.0
2018-May-18 09:55N 30°01' W 090°45'0 0.0
2018-May-18 09:29N 30°01' W 090°45'0 0.0
2018-May-18 08:19N 30°01' W 090°45'3 0.2
2018-May-17 12:28N 29°60' W 090°48'113 3.1
2018-May-16 00:36N 31°49' W 091°21'1 9.5
2018-May-16 00:31N 31°50' W 091°21'3 7.0
2018-May-16 00:00N 31°51' W 091°17'8 8.0
2018-May-15 23:01N 31°57' W 091°11'0 9.7
2018-May-15 23:00N 31°58' W 091°11'4 8.4
2018-May-15 22:30N 31°59' W 091°07'4 8.7
2018-May-15 22:00N 32°02' W 091°04'4 8.0
2018-May-15 21:30N 32°06' W 091°06'2 5.0
2018-May-15 21:01N 32°08' W 091°04'3 6.9
2018-May-15 20:30N 32°09' W 091°00'4 8.9
2018-May-15 20:01N 32°14' W 090°59'4 8.5
2018-May-15 19:30N 32°17' W 090°56'3 7.0
2018-May-15 19:01N 32°21' W 090°55'4 8.6
2018-May-15 18:30N 32°21' W 091°00'4 8.0
2018-May-15 18:00N 32°25' W 091°01'4 8.4
2018-May-15 17:31N 32°27' W 091°05'5 8.0
2018-May-15 16:53N 32°32' W 091°06'3 8.1
2018-May-15 16:30N 32°35' W 091°07'20 6.1
2018-May-15 13:11N 32°55' W 091°04'2 8.7
2018-May-15 13:00N 32°56' W 091°04'  
Track history (hours):
 
Tides and Currents Weather Stations Pressure Air Temp Water Temp Dewpoint Dewpoint Depression Visibility Wind Speed Wind Dir Waves Ship Positions

Elizabeth Dewey

Owner: American Commercial Lines LLC, Jeffersonville, IN. More information available from US FCC via Universal Licensing System and Coast Guard Vessel Documentation Center.

Last reported at 2018-May-21 14:14 UTC. Time now 2018-May-25 14:57 UTC.
Position N 32°41' W 091°06'.

Length 48 m; draft 3.4 m.

Type: Towing. MMSI: 367057670.

Date/timePositionNaut miles runAvg speedWind from/ knotsBaromVisibWave heightAir tempDewpointWater temp
2018-May-21 14:14N 32°41' W 091°06'1 4.3
2018-May-21 13:55N 32°40' W 091°07'2 3.9
2018-May-21 13:31N 32°39' W 091°09'2 4.1
2018-May-21 13:00N 32°37' W 091°09'2 3.3
2018-May-21 12:30N 32°36' W 091°08'2 4.2
2018-May-21 12:01N 32°34' W 091°06'2 3.6
2018-May-21 11:30N 32°33' W 091°06'2 3.8
2018-May-21 11:00N 32°31' W 091°07'2 4.0
2018-May-21 10:31N 32°29' W 091°07'2 3.9
2018-May-21 10:00N 32°27' W 091°05'2 4.2
2018-May-21 09:31N 32°26' W 091°03'2 4.1
2018-May-21 09:01N 32°26' W 091°01'2 3.6
2018-May-21 08:31N 32°24' W 090°59'2 4.1
2018-May-21 08:01N 32°22' W 091°00'2 3.8
2018-May-21 07:31N 32°21' W 090°59'2 4.0
2018-May-21 07:00N 32°21' W 090°56'2 3.8
2018-May-21 06:31N 32°20' W 090°54'2 3.8
2018-May-21 06:01N 32°18' W 090°55'2 3.8
2018-May-21 05:30N 32°17' W 090°56'2 3.9
2018-May-21 05:00N 32°16' W 090°58'2 3.9
2018-May-21 04:30N 32°14' W 090°59'2 4.3
2018-May-21 04:00N 32°12' W 090°59'2 3.7
2018-May-21 03:31N 32°10' W 090°60'2 3.8
2018-May-21 03:01N 32°08' W 091°00'2 3.5
2018-May-21 02:30N 32°07' W 091°02'2 3.7
2018-May-21 01:57N 32°08' W 091°04'2 3.8
2018-May-21 01:31N 32°07' W 091°06'2 3.5
2018-May-21 01:00N 32°06' W 091°05'1 1.1
2018-May-21 00:01N 32°05' W 091°05'0 3.2
2018-May-21 00:01N 32°05' W 091°05'2 4.1
2018-May-20 23:31N 32°03' W 091°04'2 4.8
2018-May-20 23:01N 32°01' W 091°05'6 3.9
2018-May-20 21:33N 31°59' W 091°11'  
2018-May-18 11:40N 30°00' W 090°47'1 4.8
2018-May-18 11:30N 30°01' W 090°46'1 1.7
2018-May-18 10:42N 30°01' W 090°45'0 0.0
2018-May-18 10:28N 30°01' W 090°45'0 0.0
2018-May-18 09:55N 30°01' W 090°45'0 0.0
2018-May-18 09:29N 30°01' W 090°45'0 0.0
2018-May-18 08:19N 30°01' W 090°45'3 0.2
2018-May-17 12:28N 29°60' W 090°48'113 3.1
2018-May-16 00:36N 31°49' W 091°21'1 9.5
2018-May-16 00:31N 31°50' W 091°21'3 7.0
2018-May-16 00:00N 31°51' W 091°17'8 8.0
2018-May-15 23:01N 31°57' W 091°11'0 9.7
2018-May-15 23:00N 31°58' W 091°11'4 8.4
2018-May-15 22:30N 31°59' W 091°07'4 8.7
2018-May-15 22:00N 32°02' W 091°04'4 8.0
2018-May-15 21:30N 32°06' W 091°06'2 5.0
2018-May-15 21:01N 32°08' W 091°04'3 6.9
2018-May-15 20:30N 32°09' W 091°00'4 8.9
2018-May-15 20:01N 32°14' W 090°59'4 8.5
2018-May-15 19:30N 32°17' W 090°56'3 7.0
2018-May-15 19:01N 32°21' W 090°55'4 8.6
2018-May-15 18:30N 32°21' W 091°00'4 8.0
2018-May-15 18:00N 32°25' W 091°01'4 8.4
2018-May-15 17:31N 32°27' W 091°05'5 8.0
2018-May-15 16:53N 32°32' W 091°06'3 8.1
2018-May-15 16:30N 32°35' W 091°07'20 6.1
2018-May-15 13:11N 32°55' W 091°04'2 8.7
2018-May-15 13:00N 32°56' W 091°04'  

Dump ship's entire track history